KBRY/BRY METAR and TAF weather

Enter ICAO airport designator
Station Type Date Time Source
KBRY METAR 2018/12/13 16:15 UTC NOAA

KBRY 131615Z AUTO 16005KT 10SM SCT050 SCT060 09/03 A3013 RMK AO1


Station Type Date Time Source
KBRY Decoded METAR 2018/12/13 16:15 UTC NOAA

Station name not available
Dec 13, 2018 - 11:15 AM EST / 2018.12.13 1615 UTC
Wind: from the SSE (160 degrees) at 6 MPH (5 KT):0
Visibility: 10 mile(s):0
Sky conditions: partly cloudy
Temperature: 48 F (9 C)
Dew Point: 37 F (3 C)
Relative Humidity: 66%
Pressure (altimeter): 30.13 in. Hg (1020 hPa)
ob: KBRY 131615Z AUTO 16005KT 10SM SCT050 SCT060 09/03 A3013 RMK AO1
cycle: 16

Station Type Date Time Source
KBRY TAF UTC NOAA

Error!


Example: see airport list